If you wish to contribute or participate in the discussions about articles you are invited to join SKYbrary as a registered user

 Actions

Solenzara (BA 126) Air Base

From SKYbrary Wiki

LFKS
Airport
ICAO: LFKS – IATA: SOZ
Summary
Name Solenzara (BA 126) Air Base
Region Europe
Territory France FR.gif
Location , Corse
Serving Solenzara
Elevation 8.534 m
28 ft
28 ft8.534 m
Type medium airport
Coordinates 41° 55' 27.90" N, 9° 24' 21.60" E
Runways
Designator Length Width Surface ROPS
18/36 2627 m8,618.766 ft
45 m147.638 ft
CON /


METAR
Observation LFKS 222330Z AUTO 14012KT 5000 DZ BR FEW008 OVC020 15/15 Q1001
Station Solenzara
Date/Time 22 April 2019 23:30:00
Wind direction 140°
Wind speed 12 kts
Lowest cloud amount few clouds
Temperature 15°C
Dew point 15°C
Humidity 100%
QNH 1001 hPa
Weather condition n/a